createdAt,value
2023-03-17T00:01:56.308Z,101339.00
2023-03-17T00:04:27.621Z,101342.00
2023-03-17T00:06:55.345Z,101331.00
2023-03-17T00:09:22.712Z,101332.00
2023-03-17T00:11:50.018Z,101328.00
2023-03-17T00:14:17.122Z,101325.00
2023-03-17T00:16:52.761Z,101325.00
2023-03-17T00:19:31.167Z,101325.00
2023-03-17T00:22:00.018Z,101332.00
2023-03-17T00:24:28.415Z,101326.00
2023-03-17T00:26:55.281Z,101323.00
2023-03-17T00:29:22.157Z,101327.00
2023-03-17T00:31:50.725Z,101323.00
2023-03-17T00:34:19.142Z,101315.00
2023-03-17T00:36:49.749Z,101306.00
2023-03-17T00:39:17.479Z,101310.00
2023-03-17T00:41:44.318Z,101299.00
2023-03-17T00:44:11.899Z,101300.00
2023-03-17T00:46:41.335Z,101292.00
2023-03-17T00:49:20.595Z,101285.00
2023-03-17T00:51:48.802Z,101279.00
2023-03-17T00:54:18.246Z,101274.00
2023-03-17T00:56:46.091Z,101256.00
2023-03-17T00:59:25.396Z,101269.00
2023-03-17T01:01:52.526Z,101264.00
2023-03-17T01:04:20.004Z,101253.00
2023-03-17T01:06:48.231Z,101250.00
2023-03-17T01:09:18.561Z,101264.00
2023-03-17T01:11:46.971Z,101259.00
2023-03-17T01:14:13.891Z,101261.00
2023-03-17T01:16:41.084Z,101262.00
2023-03-17T01:19:09.961Z,101251.00
2023-03-17T01:21:36.793Z,101253.00
2023-03-17T01:24:04.379Z,101243.00
2023-03-17T01:26:31.530Z,101251.00
2023-03-17T01:28:58.946Z,101245.00
2023-03-17T01:31:26.274Z,101244.00
2023-03-17T01:33:53.125Z,101247.00
2023-03-17T01:36:20.673Z,101233.00
2023-03-17T01:38:48.600Z,101239.00
2023-03-17T01:41:15.366Z,101231.00
2023-03-17T01:43:42.611Z,101220.00
2023-03-17T01:46:32.608Z,101215.00
2023-03-17T01:49:24.963Z,101213.00
2023-03-17T01:52:18.311Z,101221.00
2023-03-17T01:55:05.121Z,101217.00
2023-03-17T01:57:39.647Z,101205.00
2023-03-17T02:00:18.053Z,101193.00
2023-03-17T02:02:50.202Z,101201.00
2023-03-17T02:05:22.252Z,101190.00
2023-03-17T02:07:49.888Z,101199.00
2023-03-17T02:10:20.452Z,101203.00
2023-03-17T02:12:55.413Z,101199.00
2023-03-17T02:15:23.997Z,101197.00
2023-03-17T02:17:51.015Z,101182.00
2023-03-17T02:20:17.669Z,101178.00
2023-03-17T02:22:54.574Z,101172.00
2023-03-17T02:25:24.128Z,101180.00
2023-03-17T02:28:01.656Z,101182.00
2023-03-17T02:30:29.556Z,101177.00
2023-03-17T02:32:56.503Z,101193.00
2023-03-17T02:35:23.368Z,101176.00
2023-03-17T02:37:50.126Z,101170.00
2023-03-17T02:40:17.446Z,101164.00
2023-03-17T02:42:44.612Z,101165.00
2023-03-17T02:45:13.272Z,101183.00
2023-03-17T02:47:41.451Z,101175.00
2023-03-17T02:50:14.590Z,101167.00
2023-03-17T02:52:41.490Z,101166.00
2023-03-17T02:55:08.798Z,101168.00
2023-03-17T02:57:37.340Z,101156.00
2023-03-17T03:00:05.286Z,101160.00
2023-03-17T03:02:32.071Z,101157.00
2023-03-17T03:04:58.851Z,101158.00
2023-03-17T03:07:26.321Z,101162.00
2023-03-17T03:09:53.106Z,101154.00
2023-03-17T03:12:19.880Z,101155.00
2023-03-17T03:14:47.614Z,101155.00
2023-03-17T03:17:14.419Z,101164.00
2023-03-17T03:19:41.176Z,101168.00
2023-03-17T03:22:08.890Z,101175.00
2023-03-17T03:24:36.351Z,101172.00
2023-03-17T03:27:03.242Z,101169.00
2023-03-17T03:29:29.988Z,101181.00
2023-03-17T03:31:57.002Z,101177.00
2023-03-17T03:34:23.774Z,101186.00
2023-03-17T03:36:50.597Z,101180.00
2023-03-17T03:39:17.357Z,101176.00
2023-03-17T03:41:44.148Z,101175.00
2023-03-17T03:44:11.013Z,101174.00
2023-03-17T03:46:37.800Z,101163.00
2023-03-17T03:49:04.689Z,101167.00
2023-03-17T03:51:31.560Z,101176.00
2023-03-17T03:53:58.332Z,101177.00
2023-03-17T03:56:25.454Z,101185.00
2023-03-17T03:58:52.432Z,101167.00
2023-03-17T04:01:19.563Z,101178.00
2023-03-17T04:03:48.017Z,101173.00
2023-03-17T04:06:14.824Z,101176.00
2023-03-17T04:08:41.657Z,101177.00
2023-03-17T04:11:08.794Z,101172.00
2023-03-17T04:13:36.036Z,101168.00
2023-03-17T04:16:03.394Z,101163.00
2023-03-17T04:18:31.627Z,101163.00
2023-03-17T04:20:58.502Z,101168.00
2023-03-17T04:23:25.469Z,101157.00
2023-03-17T04:25:53.615Z,101154.00
2023-03-17T04:28:22.414Z,101150.00
2023-03-17T04:30:49.197Z,101138.00
2023-03-17T04:33:16.041Z,101138.00
2023-03-17T04:35:42.784Z,101122.00
2023-03-17T04:38:13.102Z,101121.00
2023-03-17T04:40:39.993Z,101132.00
2023-03-17T04:43:07.193Z,101136.00
2023-03-17T04:45:34.010Z,101134.00
2023-03-17T04:48:00.896Z,101142.00
2023-03-17T04:50:27.688Z,101139.00
2023-03-17T04:52:54.471Z,101127.00
2023-03-17T04:55:21.400Z,101130.00
2023-03-17T04:57:48.244Z,101139.00
2023-03-17T05:00:15.581Z,101134.00
2023-03-17T05:02:42.502Z,101133.00
2023-03-17T05:05:09.931Z,101130.00
2023-03-17T05:07:36.665Z,101129.00
2023-03-17T05:10:06.029Z,101123.00
2023-03-17T05:12:32.822Z,101124.00
2023-03-17T05:14:59.557Z,101135.00
2023-03-17T05:17:26.399Z,101126.00
2023-03-17T05:19:53.306Z,101106.00
2023-03-17T05:22:20.050Z,101088.00
2023-03-17T05:24:47.613Z,101110.00
2023-03-17T05:27:14.362Z,101120.00
2023-03-17T05:29:41.383Z,101109.00
2023-03-17T05:32:08.162Z,101115.00
2023-03-17T05:34:34.915Z,101124.00
2023-03-17T05:37:01.723Z,101119.00
2023-03-17T05:39:28.561Z,101118.00
2023-03-17T05:41:55.379Z,101128.00
2023-03-17T05:44:22.145Z,101130.00
2023-03-17T05:46:49.362Z,101128.00
2023-03-17T05:49:16.245Z,101129.00
2023-03-17T05:51:44.307Z,101127.00
2023-03-17T05:54:11.061Z,101136.00
2023-03-17T05:56:37.920Z,101146.00
2023-03-17T05:59:04.923Z,101139.00
2023-03-17T06:01:31.667Z,101148.00
2023-03-17T06:03:58.404Z,101128.00
2023-03-17T06:06:25.771Z,101127.00
2023-03-17T06:08:52.945Z,101130.00
2023-03-17T06:11:21.512Z,101125.00
2023-03-17T06:13:48.909Z,101108.00
2023-03-17T06:16:16.957Z,101113.00
2023-03-17T06:18:45.752Z,101107.00
2023-03-17T06:21:13.819Z,101111.00
2023-03-17T06:23:40.612Z,101134.00
2023-03-17T06:26:07.433Z,101127.00
2023-03-17T06:28:34.274Z,101131.00
2023-03-17T06:31:01.163Z,101128.00
2023-03-17T06:33:28.654Z,101121.00
2023-03-17T06:35:55.429Z,101122.00
2023-03-17T06:38:22.665Z,101122.00
2023-03-17T06:40:49.406Z,101113.00
2023-03-17T06:43:17.537Z,101115.00
2023-03-17T06:45:44.330Z,101107.00
2023-03-17T06:48:11.598Z,101112.00
2023-03-17T06:50:38.344Z,101102.00
2023-03-17T06:53:05.310Z,101107.00
2023-03-17T06:55:33.289Z,101095.00
2023-03-17T06:58:01.904Z,101089.00
2023-03-17T07:00:30.297Z,101104.00
2023-03-17T07:02:57.798Z,101105.00
2023-03-17T07:05:24.593Z,101100.00
2023-03-17T07:07:51.328Z,101096.00
2023-03-17T07:10:18.627Z,101095.00
2023-03-17T07:12:45.996Z,101092.00
2023-03-17T07:15:13.127Z,101100.00
2023-03-17T07:17:40.139Z,101082.00
2023-03-17T07:20:07.564Z,101082.00
2023-03-17T07:22:35.040Z,101072.00
2023-03-17T07:25:01.901Z,101072.00
2023-03-17T07:27:29.299Z,101069.00
2023-03-17T07:29:56.501Z,101071.00
2023-03-17T07:32:23.250Z,101071.00
2023-03-17T07:34:50.200Z,101057.00
2023-03-17T07:37:17.566Z,101043.00
2023-03-17T07:39:44.719Z,101061.00
2023-03-17T07:42:15.661Z,101056.00
2023-03-17T07:44:42.605Z,101041.00
2023-03-17T07:47:11.415Z,101027.00
2023-03-17T07:49:41.907Z,101046.00
2023-03-17T07:52:10.839Z,101056.00
2023-03-17T07:54:38.078Z,101051.00
2023-03-17T07:57:06.302Z,101068.00
2023-03-17T07:59:33.751Z,101070.00
2023-03-17T08:02:01.392Z,101062.00
2023-03-17T08:04:29.193Z,101067.00
2023-03-17T08:06:57.440Z,101051.00
2023-03-17T08:09:24.365Z,101055.00
2023-03-17T08:11:51.186Z,101060.00
2023-03-17T08:14:17.983Z,101061.00
2023-03-17T08:16:45.040Z,101059.00
2023-03-17T08:19:11.841Z,101047.00
2023-03-17T08:21:38.647Z,101047.00
2023-03-17T08:24:05.880Z,101042.00
2023-03-17T08:26:32.824Z,101045.00
2023-03-17T08:29:00.320Z,101033.00
2023-03-17T08:31:27.219Z,101033.00
2023-03-17T08:33:57.034Z,101035.00
2023-03-17T08:36:24.455Z,101032.00
2023-03-17T08:38:51.750Z,101037.00
2023-03-17T08:41:23.730Z,101049.00
2023-03-17T08:43:51.723Z,101045.00
2023-03-17T08:46:27.109Z,101040.00
2023-03-17T08:48:56.630Z,101033.00
2023-03-17T08:51:28.441Z,101023.00
2023-03-17T08:53:55.692Z,101013.00
2023-03-17T08:56:23.146Z,101010.00
2023-03-17T08:58:51.689Z,101007.00
2023-03-17T09:01:21.263Z,101002.00
2023-03-17T09:03:49.654Z,100998.00
2023-03-17T09:06:16.910Z,100991.00
2023-03-17T09:08:48.044Z,101000.00
2023-03-17T09:11:18.062Z,100993.00
2023-03-17T09:13:46.513Z,100988.00
2023-03-17T09:16:15.020Z,100990.00
2023-03-17T09:18:42.675Z,100980.00
2023-03-17T09:21:13.271Z,100979.00
2023-03-17T09:23:41.133Z,100981.00
2023-03-17T09:26:09.157Z,100984.00
2023-03-17T09:28:36.279Z,100985.00
2023-03-17T09:31:07.710Z,100994.00
2023-03-17T09:33:35.578Z,100982.00
2023-03-17T09:36:02.357Z,100976.00
2023-03-17T09:38:29.096Z,100981.00
2023-03-17T09:41:14.122Z,100988.00
2023-03-17T09:44:03.672Z,100987.00
2023-03-17T09:46:53.651Z,100995.00
2023-03-17T09:49:27.545Z,100998.00
2023-03-17T09:51:54.446Z,100996.00
2023-03-17T09:54:36.454Z,100994.00
2023-03-17T09:57:26.202Z,100986.00
2023-03-17T10:00:01.852Z,100989.00
2023-03-17T10:02:32.689Z,100981.00
2023-03-17T10:05:19.659Z,100975.00
2023-03-17T10:08:30.636Z,100965.00
2023-03-17T10:11:30.419Z,100959.00
2023-03-17T10:14:21.477Z,100966.00
2023-03-17T10:16:54.635Z,100973.00
2023-03-17T10:19:43.097Z,100965.00
2023-03-17T10:22:30.261Z,100970.00
2023-03-17T10:25:24.604Z,100981.00
2023-03-17T10:28:08.791Z,100982.00
2023-03-17T10:30:36.341Z,100970.00
2023-03-17T10:33:09.024Z,100985.00
2023-03-17T10:35:38.560Z,100977.00
2023-03-17T10:38:19.825Z,100975.00
2023-03-17T10:40:57.394Z,100965.00
2023-03-17T10:43:30.510Z,100961.00
2023-03-17T10:46:04.645Z,100963.00
2023-03-17T10:48:37.822Z,100965.00
2023-03-17T10:51:10.180Z,100958.00
2023-03-17T10:53:43.310Z,100946.00
2023-03-17T10:56:22.685Z,100943.00
2023-03-17T10:58:53.494Z,100942.00
2023-03-17T11:01:33.996Z,100948.00
2023-03-17T11:04:02.668Z,100934.00
2023-03-17T11:06:51.484Z,100937.00
2023-03-17T11:09:21.240Z,100928.00
2023-03-17T11:12:00.383Z,100924.00
2023-03-17T11:14:28.353Z,100923.00
2023-03-17T11:16:56.813Z,100921.00
2023-03-17T11:19:57.622Z,100923.00
2023-03-17T11:22:40.109Z,100930.00
2023-03-17T11:25:19.855Z,100925.00
2023-03-17T11:28:19.810Z,100916.00
2023-03-17T11:31:32.174Z,100919.00
2023-03-17T11:34:19.946Z,100918.00
2023-03-17T11:37:26.218Z,100909.00
2023-03-17T11:40:27.220Z,100916.00
2023-03-17T11:43:43.916Z,100911.00
2023-03-17T11:46:28.245Z,100916.00
2023-03-17T11:49:24.379Z,100914.00
2023-03-17T11:52:28.652Z,100907.00
2023-03-17T11:55:25.064Z,100904.00
2023-03-17T11:58:03.349Z,100903.00
2023-03-17T12:00:42.080Z,100905.00
2023-03-17T12:03:38.518Z,100898.00
2023-03-17T12:06:15.577Z,100894.00
2023-03-17T12:08:53.679Z,100894.00
2023-03-17T12:11:26.190Z,100901.00
2023-03-17T12:14:04.759Z,100899.00
2023-03-17T12:16:45.947Z,100879.00
2023-03-17T12:19:38.103Z,100885.00
2023-03-17T12:22:14.474Z,100881.00
2023-03-17T12:25:02.778Z,100881.00
2023-03-17T12:27:38.257Z,100870.00
2023-03-17T12:30:20.778Z,100876.00
2023-03-17T12:33:12.098Z,100880.00
2023-03-17T12:35:39.385Z,100882.00
2023-03-17T12:38:39.319Z,100869.00
2023-03-17T12:41:31.598Z,100874.00
2023-03-17T12:44:44.799Z,100867.00
2023-03-17T12:47:36.760Z,100860.00
2023-03-17T12:50:30.450Z,100848.00
2023-03-17T12:53:28.393Z,100847.00
2023-03-17T12:56:02.514Z,100850.00
2023-03-17T12:58:40.317Z,100835.00
2023-03-17T13:01:58.396Z,100830.00
2023-03-17T13:04:35.488Z,100833.00
2023-03-17T13:07:17.199Z,100825.00
2023-03-17T13:09:54.537Z,100827.00
2023-03-17T13:12:39.417Z,100836.00
2023-03-17T13:15:34.975Z,100844.00
2023-03-17T13:18:16.864Z,100834.00
2023-03-17T13:20:50.608Z,100836.00
2023-03-17T13:23:23.425Z,100833.00
2023-03-17T13:25:53.791Z,100830.00
2023-03-17T13:28:40.713Z,100828.00
2023-03-17T13:31:27.488Z,100817.00
2023-03-17T13:34:01.883Z,100820.00
2023-03-17T13:36:58.032Z,100822.00
2023-03-17T13:40:35.044Z,100815.00
2023-03-17T13:43:43.504Z,100816.00
2023-03-17T13:46:28.599Z,100803.00
2023-03-17T13:48:56.795Z,100818.00
2023-03-17T13:51:27.713Z,100823.00
2023-03-17T13:54:06.651Z,100824.00
2023-03-17T13:56:36.606Z,100828.00
2023-03-17T13:59:05.118Z,100824.00
2023-03-17T14:01:41.461Z,100829.00
2023-03-17T14:04:20.358Z,100831.00
2023-03-17T14:06:50.823Z,100824.00
2023-03-17T14:09:30.774Z,100820.00
2023-03-17T14:12:02.311Z,100822.00
2023-03-17T14:14:44.139Z,100820.00
2023-03-17T14:17:44.674Z,100824.00
2023-03-17T14:20:18.388Z,100818.00
2023-03-17T14:22:52.370Z,100823.00
2023-03-17T14:25:35.661Z,100800.00
2023-03-17T14:28:10.643Z,100805.00
2023-03-17T14:30:37.905Z,100814.00
2023-03-17T14:33:22.613Z,100790.00
2023-03-17T14:35:53.921Z,100797.00
2023-03-17T14:38:28.408Z,100791.00
2023-03-17T14:41:22.623Z,100788.00
2023-03-17T14:43:52.877Z,100772.00
2023-03-17T14:46:27.392Z,100776.00
2023-03-17T14:49:05.316Z,100763.00
2023-03-17T14:51:39.190Z,100759.00
2023-03-17T14:54:22.792Z,100749.00
2023-03-17T14:57:03.281Z,100754.00
2023-03-17T14:59:31.980Z,100766.00
2023-03-17T15:02:04.015Z,100761.00
2023-03-17T15:04:34.101Z,100759.00
2023-03-17T15:07:05.729Z,100761.00
2023-03-17T15:09:41.193Z,100751.00
2023-03-17T15:12:21.775Z,100750.00
2023-03-17T15:14:56.354Z,100740.00
2023-03-17T15:17:36.138Z,100749.00
2023-03-17T15:20:11.882Z,100750.00
2023-03-17T15:22:38.537Z,100737.00
2023-03-17T15:25:28.441Z,100734.00
2023-03-17T15:27:56.201Z,100721.00
2023-03-17T15:30:23.785Z,100716.00
2023-03-17T15:33:02.905Z,100718.00
2023-03-17T15:35:29.850Z,100715.00
2023-03-17T15:37:56.933Z,100711.00
2023-03-17T15:40:24.274Z,100706.00
2023-03-17T15:42:51.088Z,100713.00
2023-03-17T15:45:18.329Z,100709.00
2023-03-17T15:47:48.390Z,100709.00
2023-03-17T15:50:29.237Z,100711.00
2023-03-17T15:52:57.284Z,100708.00
2023-03-17T15:55:31.383Z,100721.00
2023-03-17T15:57:59.187Z,100720.00
2023-03-17T16:00:29.958Z,100722.00
2023-03-17T16:03:04.237Z,100721.00
2023-03-17T16:05:33.707Z,100714.00
2023-03-17T16:08:00.624Z,100720.00
2023-03-17T16:10:32.987Z,100717.00
2023-03-17T16:13:00.339Z,100723.00
2023-03-17T16:15:31.950Z,100737.00
2023-03-17T16:18:02.455Z,100731.00
2023-03-17T16:20:39.168Z,100731.00
2023-03-17T16:23:18.000Z,100722.00
2023-03-17T16:25:46.751Z,100728.00
2023-03-17T16:28:20.227Z,100719.00
2023-03-17T16:30:49.094Z,100712.00
2023-03-17T16:33:24.140Z,100712.00
2023-03-17T16:35:53.314Z,100716.00
2023-03-17T16:38:23.894Z,100706.00
2023-03-17T16:40:58.923Z,100710.00
2023-03-17T16:43:28.766Z,100711.00
2023-03-17T16:45:59.186Z,100707.00
2023-03-17T16:48:26.874Z,100711.00
2023-03-17T16:50:54.178Z,100714.00
2023-03-17T16:53:21.687Z,100708.00
2023-03-17T16:55:49.266Z,100709.00
2023-03-17T16:58:32.437Z,100708.00
2023-03-17T17:01:10.217Z,100720.00
2023-03-17T17:03:37.899Z,100705.00
2023-03-17T17:06:07.060Z,100703.00
2023-03-17T17:08:33.988Z,100705.00
2023-03-17T17:11:00.960Z,100709.00
2023-03-17T17:13:27.793Z,100714.00
2023-03-17T17:15:55.788Z,100718.00
2023-03-17T17:18:24.609Z,100716.00
2023-03-17T17:20:53.795Z,100707.00
2023-03-17T17:23:26.851Z,100713.00
2023-03-17T17:25:54.592Z,100714.00
2023-03-17T17:28:24.370Z,100711.00
2023-03-17T17:30:53.100Z,100708.00
2023-03-17T17:33:21.682Z,100706.00
2023-03-17T17:35:49.853Z,100719.00
2023-03-17T17:38:20.509Z,100709.00
2023-03-17T17:40:48.881Z,100708.00
2023-03-17T17:43:18.083Z,100718.00
2023-03-17T17:45:49.311Z,100715.00
2023-03-17T17:48:23.461Z,100715.00
2023-03-17T17:50:52.330Z,100720.00
2023-03-17T17:53:19.338Z,100724.00
2023-03-17T17:55:48.112Z,100726.00
2023-03-17T17:58:19.294Z,100728.00
2023-03-17T18:00:46.217Z,100725.00
2023-03-17T18:03:13.323Z,100716.00
2023-03-17T18:05:40.265Z,100724.00
2023-03-17T18:08:07.155Z,100724.00
2023-03-17T18:10:34.799Z,100724.00
2023-03-17T18:13:01.950Z,100724.00
2023-03-17T18:15:29.091Z,100714.00
2023-03-17T18:17:56.250Z,100710.00
2023-03-17T18:20:25.282Z,100723.00
2023-03-17T18:22:52.855Z,100723.00
2023-03-17T18:25:20.266Z,100721.00
2023-03-17T18:27:47.949Z,100711.00
2023-03-17T18:30:23.808Z,100713.00
2023-03-17T18:32:55.418Z,100707.00
2023-03-17T18:35:25.307Z,100706.00
2023-03-17T18:37:52.193Z,100710.00
2023-03-17T18:40:19.676Z,100719.00
2023-03-17T18:42:47.265Z,100703.00
2023-03-17T18:45:14.828Z,100709.00
2023-03-17T18:47:42.093Z,100711.00
2023-03-17T18:50:13.464Z,100695.00
2023-03-17T18:52:43.728Z,100696.00
2023-03-17T18:55:13.105Z,100700.00
2023-03-17T18:57:42.544Z,100699.00
2023-03-17T19:00:14.297Z,100698.00
2023-03-17T19:02:41.218Z,100687.00
2023-03-17T19:05:09.272Z,100684.00
2023-03-17T19:07:38.440Z,100679.00
2023-03-17T19:10:07.656Z,100677.00
2023-03-17T19:12:34.473Z,100678.00
2023-03-17T19:15:01.751Z,100689.00
2023-03-17T19:17:28.708Z,100674.00
2023-03-17T19:19:55.802Z,100679.00
2023-03-17T19:22:23.036Z,100670.00
2023-03-17T19:24:50.390Z,100671.00
2023-03-17T19:27:17.803Z,100663.00
2023-03-17T19:29:44.644Z,100662.00
2023-03-17T19:32:11.675Z,100655.00
2023-03-17T19:34:38.479Z,100663.00
2023-03-17T19:37:05.763Z,100658.00
2023-03-17T19:39:33.810Z,100668.00
2023-03-17T19:42:00.907Z,100675.00
2023-03-17T19:44:27.987Z,100670.00
2023-03-17T19:46:54.840Z,100681.00
2023-03-17T19:49:22.370Z,100680.00
2023-03-17T19:51:50.068Z,100675.00
2023-03-17T19:54:18.712Z,100674.00
2023-03-17T19:56:46.017Z,100690.00
2023-03-17T19:59:14.740Z,100686.00
2023-03-17T20:01:42.260Z,100678.00
2023-03-17T20:04:11.364Z,100691.00
2023-03-17T20:06:40.073Z,100694.00
2023-03-17T20:09:08.808Z,100692.00
2023-03-17T20:11:36.307Z,100700.00
2023-03-17T20:14:04.314Z,100701.00
2023-03-17T20:16:33.530Z,100704.00
2023-03-17T20:19:01.864Z,100692.00
2023-03-17T20:21:28.898Z,100711.00
2023-03-17T20:23:56.289Z,100707.00
2023-03-17T20:26:23.312Z,100708.00
2023-03-17T20:28:50.198Z,100711.00
2023-03-17T20:31:18.006Z,100705.00
2023-03-17T20:33:44.750Z,100710.00
2023-03-17T20:36:12.932Z,100711.00
2023-03-17T20:38:40.599Z,100694.00
2023-03-17T20:41:12.851Z,100694.00
2023-03-17T20:43:40.351Z,100690.00
2023-03-17T20:46:09.267Z,100689.00
2023-03-17T20:48:37.605Z,100688.00
2023-03-17T20:51:06.286Z,100683.00
2023-03-17T20:53:34.316Z,100684.00
2023-03-17T20:56:01.148Z,100689.00
2023-03-17T20:58:29.891Z,100684.00
2023-03-17T21:01:00.895Z,100685.00
2023-03-17T21:03:27.933Z,100675.00
2023-03-17T21:05:55.009Z,100685.00
2023-03-17T21:08:22.053Z,100683.00
2023-03-17T21:10:50.195Z,100696.00
2023-03-17T21:13:17.969Z,100686.00
2023-03-17T21:15:45.629Z,100697.00
2023-03-17T21:18:14.528Z,100694.00
2023-03-17T21:20:42.223Z,100688.00
2023-03-17T21:23:09.204Z,100693.00
2023-03-17T21:25:36.241Z,100688.00
2023-03-17T21:28:05.061Z,100689.00
2023-03-17T21:30:33.806Z,100681.00
2023-03-17T21:33:01.914Z,100677.00
2023-03-17T21:35:30.819Z,100685.00
2023-03-17T21:37:57.869Z,100679.00
2023-03-17T21:40:26.125Z,100669.00
2023-03-17T21:42:54.339Z,100676.00
2023-03-17T21:45:21.957Z,100674.00
2023-03-17T21:47:49.327Z,100671.00
2023-03-17T21:50:18.406Z,100670.00
2023-03-17T21:52:45.481Z,100674.00
2023-03-17T21:55:12.599Z,100677.00
2023-03-17T21:57:39.376Z,100677.00
2023-03-17T22:00:10.468Z,100668.00
2023-03-17T22:02:37.866Z,100665.00
2023-03-17T22:05:06.918Z,100666.00
2023-03-17T22:07:33.780Z,100662.00
2023-03-17T22:10:01.204Z,100670.00
2023-03-17T22:12:28.758Z,100657.00
2023-03-17T22:14:58.575Z,100654.00
2023-03-17T22:17:25.982Z,100658.00
2023-03-17T22:19:53.239Z,100662.00
2023-03-17T22:22:21.200Z,100653.00
2023-03-17T22:24:48.706Z,100658.00
2023-03-17T22:27:17.668Z,100655.00
2023-03-17T22:29:44.768Z,100655.00
2023-03-17T22:32:11.723Z,100665.00
2023-03-17T22:34:38.599Z,100668.00
2023-03-17T22:37:05.735Z,100660.00
2023-03-17T22:39:34.574Z,100652.00
2023-03-17T22:42:02.056Z,100657.00
2023-03-17T22:44:28.789Z,100654.00
2023-03-17T22:46:55.767Z,100656.00
2023-03-17T22:49:23.606Z,100655.00
2023-03-17T22:51:50.514Z,100654.00
2023-03-17T22:54:18.639Z,100650.00
2023-03-17T22:56:45.683Z,100652.00
2023-03-17T22:59:12.510Z,100649.00
2023-03-17T23:01:39.597Z,100653.00
2023-03-17T23:04:10.400Z,100653.00
2023-03-17T23:06:37.966Z,100652.00
2023-03-17T23:09:05.219Z,100651.00
2023-03-17T23:11:32.209Z,100657.00
2023-03-17T23:13:59.378Z,100650.00
2023-03-17T23:16:27.191Z,100643.00
2023-03-17T23:18:54.432Z,100652.00
2023-03-17T23:21:34.245Z,100643.00
2023-03-17T23:24:03.761Z,100642.00
2023-03-17T23:26:32.000Z,100639.00
2023-03-17T23:29:01.987Z,100642.00
2023-03-17T23:31:28.753Z,100639.00
2023-03-17T23:33:56.738Z,100637.00
2023-03-17T23:36:23.529Z,100626.00
2023-03-17T23:38:52.104Z,100626.00
2023-03-17T23:41:19.513Z,100636.00
2023-03-17T23:43:46.873Z,100630.00
2023-03-17T23:46:14.722Z,100620.00
2023-03-17T23:48:42.894Z,100625.00
2023-03-17T23:51:12.362Z,100627.00
2023-03-17T23:53:41.740Z,100628.00
2023-03-17T23:56:11.499Z,100633.00
2023-03-17T23:58:39.668Z,100633.00
